Terminal Aerodrome Forecast
Issued by NWS

Home | Current Version | Previous Version | Graphics & Text | Print | Product List | Glossary On
Versions: 1 2 3 4 5 6 7 8 9 10 11 12 13
000
FTUS43 KGRB 181134
TAFAUW
TAF
KAUW 181134Z 1812/1912 19009KT P6SM SKC WS020/22040KT
     FM181500 20012G19KT P6SM SKC
     FM182200 22013G19KT P6SM SCT250 WS020/25040KT
     FM190000 24009KT P6SM SCT200 WS020/24045KT
     FM190400 28006KT P6SM SKC=

USA.gov is the U.S. government's official web portal to all federal, state and local government web resources and services.